createdAt,value
2023-01-19T00:01:32.372Z,8.20
2023-01-19T00:05:27.167Z,8.00
2023-01-19T00:09:29.780Z,7.10
2023-01-19T00:13:22.209Z,6.90
2023-01-19T00:17:07.487Z,7.60
2023-01-19T00:21:09.901Z,7.20
2023-01-19T00:25:22.268Z,6.80
2023-01-19T00:29:13.323Z,6.90
2023-01-19T00:33:15.752Z,8.90
2023-01-19T00:36:56.577Z,7.70
2023-01-19T00:40:57.353Z,6.80
2023-01-19T00:44:58.688Z,5.90
2023-01-19T00:48:59.930Z,6.50
2023-01-19T00:53:02.728Z,6.10
2023-01-19T00:57:04.353Z,7.30
2023-01-19T01:00:58.186Z,6.50
2023-01-19T01:04:51.866Z,7.20
2023-01-19T01:08:39.378Z,7.60
2023-01-19T01:12:34.661Z,7.10
2023-01-19T01:16:17.071Z,7.00
2023-01-19T01:19:44.036Z,6.90
2023-01-19T01:23:28.661Z,6.90
2023-01-19T01:27:21.015Z,7.40
2023-01-19T01:30:51.523Z,7.10
2023-01-19T01:34:52.584Z,7.10
2023-01-19T01:38:41.023Z,7.50
2023-01-19T01:42:23.402Z,7.70
2023-01-19T01:46:25.767Z,7.90
2023-01-19T01:50:20.771Z,7.00
2023-01-19T01:54:08.340Z,8.50
2023-01-19T01:57:56.017Z,6.50
2023-01-19T02:01:39.455Z,6.50
2023-01-19T02:05:42.177Z,6.20
2023-01-19T02:09:41.032Z,6.00
2023-01-19T02:13:30.734Z,6.40
2023-01-19T02:17:33.194Z,6.50
2023-01-19T02:21:41.444Z,5.80
2023-01-19T02:25:43.860Z,5.90
2023-01-19T02:29:46.280Z,6.80
2023-01-19T02:33:47.259Z,6.10
2023-01-19T02:37:42.419Z,6.40
2023-01-19T02:41:33.641Z,6.80
2023-01-19T02:45:36.830Z,5.70
2023-01-19T02:49:40.867Z,6.50
2023-01-19T02:53:46.376Z,6.20
2023-01-19T02:57:51.595Z,6.00
2023-01-19T03:01:54.121Z,6.20
2023-01-19T03:06:04.283Z,6.80
2023-01-19T03:10:09.444Z,6.50
2023-01-19T03:14:12.799Z,7.50
2023-01-19T03:18:05.144Z,7.40
2023-01-19T03:21:57.487Z,7.00
2023-01-19T03:25:59.899Z,6.10
2023-01-19T03:29:57.477Z,6.40
2023-01-19T03:33:42.967Z,6.40
2023-01-19T03:37:37.211Z,6.10
2023-01-19T03:41:32.332Z,6.40
2023-01-19T03:45:00.206Z,6.20
2023-01-19T03:48:55.004Z,7.20
2023-01-19T03:52:57.649Z,6.80
2023-01-19T03:57:00.566Z,7.40
2023-01-19T04:00:32.797Z,6.90
2023-01-19T04:04:04.730Z,6.90
2023-01-19T04:08:07.127Z,6.90
2023-01-19T04:11:59.437Z,7.00
2023-01-19T04:16:02.211Z,8.30
2023-01-19T04:19:47.448Z,8.60
2023-01-19T04:23:49.846Z,8.30
2023-01-19T04:27:21.616Z,9.80
2023-01-19T04:31:23.869Z,12.40
2023-01-19T04:35:26.259Z,11.60
2023-01-19T04:39:28.596Z,12.50
2023-01-19T04:43:30.871Z,13.20
2023-01-19T04:47:03.025Z,12.70
2023-01-19T04:51:05.299Z,13.20
2023-01-19T04:54:28.578Z,14.10
2023-01-19T04:58:16.100Z,12.80
2023-01-19T05:02:00.552Z,12.60
2023-01-19T05:05:38.554Z,16.20
2023-01-19T05:13:00.882Z,11.80
2023-01-19T05:16:53.302Z,15.10
2023-01-19T05:20:28.441Z,15.20
2023-01-19T05:24:20.607Z,14.40
2023-01-19T05:28:21.951Z,13.40
2023-01-19T05:31:49.535Z,14.00
2023-01-19T05:35:35.393Z,12.40
2023-01-19T05:39:38.280Z,12.60
2023-01-19T05:43:33.194Z,11.40
2023-01-19T05:47:07.399Z,10.40
2023-01-19T05:50:59.713Z,13.50
2023-01-19T05:54:52.049Z,13.50
2023-01-19T05:58:42.659Z,14.10
2023-01-19T06:02:45.096Z,13.90
2023-01-19T06:06:33.702Z,13.70
2023-01-19T06:10:36.020Z,14.00
2023-01-19T06:14:27.376Z,12.50
2023-01-19T06:17:47.053Z,12.50
2023-01-19T06:21:49.364Z,13.00
2023-01-19T06:26:01.085Z,12.70
2023-01-19T06:30:03.505Z,12.80
2023-01-19T06:33:16.567Z,12.40
2023-01-19T06:37:18.936Z,12.90
2023-01-19T06:41:21.248Z,10.40
2023-01-19T06:45:13.584Z,10.70
2023-01-19T06:49:15.941Z,11.80
2023-01-19T06:53:18.321Z,10.80
2023-01-19T06:57:20.679Z,9.00
2023-01-19T07:01:23.181Z,5.40
2023-01-19T07:05:25.687Z,5.10
2023-01-19T07:09:10.327Z,5.60
2023-01-19T07:13:12.692Z,4.40
2023-01-19T07:16:24.059Z,5.00
2023-01-19T07:23:33.781Z,4.90
2023-01-19T07:27:27.702Z,4.70
2023-01-19T07:31:13.406Z,5.50
2023-01-19T07:35:08.516Z,5.00
2023-01-19T07:39:10.913Z,4.80
2023-01-19T07:43:13.176Z,4.90
2023-01-19T07:46:48.400Z,4.30
2023-01-19T07:50:35.576Z,3.50
2023-01-19T07:54:27.919Z,3.90
2023-01-19T07:58:13.155Z,3.70
2023-01-19T08:02:16.346Z,3.00
2023-01-19T08:05:34.913Z,3.20
2023-01-19T08:08:39.531Z,3.00
2023-01-19T08:12:24.741Z,2.60
2023-01-19T08:15:50.385Z,2.60
2023-01-19T08:19:42.719Z,2.70
2023-01-19T08:23:18.158Z,3.00
2023-01-19T08:27:13.145Z,2.90
2023-01-19T08:30:54.175Z,2.80
2023-01-19T08:34:16.352Z,2.80
2023-01-19T08:38:11.068Z,2.90
2023-01-19T08:42:13.458Z,2.90
2023-01-19T08:46:15.890Z,1.90
2023-01-19T08:50:11.220Z,1.90
2023-01-19T08:53:53.580Z,1.80
2023-01-19T08:57:39.038Z,1.60
2023-01-19T09:01:34.303Z,2.10
2023-01-19T09:05:16.782Z,2.00
2023-01-19T09:09:01.954Z,2.00
2023-01-19T09:12:51.820Z,1.80
2023-01-19T09:16:46.937Z,1.60
2023-01-19T09:20:45.553Z,1.80
2023-01-19T09:24:27.657Z,2.60
2023-01-19T09:28:29.984Z,2.30
2023-01-19T09:32:11.305Z,1.90
2023-01-19T09:36:13.659Z,2.70
2023-01-19T09:40:15.940Z,2.30
2023-01-19T09:44:18.662Z,3.40
2023-01-19T09:48:12.497Z,5.20
2023-01-19T09:52:07.022Z,3.90
2023-01-19T09:55:51.549Z,7.00
2023-01-19T09:59:47.927Z,3.50
2023-01-19T10:03:50.298Z,3.30
2023-01-19T10:08:16.376Z,4.00
2023-01-19T10:12:21.609Z,2.00
2023-01-19T10:16:16.065Z,2.70
2023-01-19T10:20:18.589Z,2.70
2023-01-19T10:24:23.705Z,2.20
2023-01-19T10:28:24.868Z,2.90
2023-01-19T10:32:20.035Z,2.40
2023-01-19T10:36:22.456Z,2.40
2023-01-19T10:40:24.889Z,2.40
2023-01-19T10:44:23.274Z,2.70
2023-01-19T10:48:18.763Z,2.60
2023-01-19T10:52:27.077Z,3.30
2023-01-19T10:56:14.480Z,2.80
2023-01-19T11:00:09.157Z,3.00
2023-01-19T11:04:00.271Z,3.40
2023-01-19T11:07:43.873Z,2.00
2023-01-19T11:11:08.231Z,1.90
2023-01-19T11:14:22.159Z,1.80
2023-01-19T11:17:54.416Z,2.70
2023-01-19T11:21:56.800Z,1.90
2023-01-19T11:25:54.790Z,1.30
2023-01-19T11:29:34.604Z,1.50
2023-01-19T11:33:23.115Z,1.00
2023-01-19T11:37:25.475Z,1.20
2023-01-19T11:41:01.455Z,1.00
2023-01-19T11:44:52.865Z,1.20
2023-01-19T11:48:53.954Z,1.20
2023-01-19T11:53:05.222Z,1.10
2023-01-19T11:56:49.514Z,1.10
2023-01-19T12:00:42.564Z,1.30
2023-01-19T12:04:37.634Z,1.20
2023-01-19T12:08:39.971Z,1.10
2023-01-19T12:12:42.350Z,1.20
2023-01-19T12:16:37.260Z,1.30
2023-01-19T12:20:48.785Z,1.40
2023-01-19T12:24:46.478Z,1.30
2023-01-19T12:28:43.021Z,1.20
2023-01-19T12:32:28.101Z,1.30
2023-01-19T12:36:08.972Z,1.30
2023-01-19T12:40:10.991Z,1.10
2023-01-19T12:44:13.422Z,1.20
2023-01-19T12:48:15.931Z,1.20
2023-01-19T12:52:18.534Z,1.00
2023-01-19T12:55:56.723Z,1.00
2023-01-19T12:59:57.771Z,1.30
2023-01-19T13:04:00.128Z,1.20
2023-01-19T13:08:02.563Z,1.20
2023-01-19T13:12:00.968Z,0.90
2023-01-19T13:15:42.003Z,1.30
2023-01-19T13:19:47.116Z,0.90
2023-01-19T13:23:27.829Z,1.00
2023-01-19T13:27:23.697Z,1.10
2023-01-19T13:31:29.019Z,0.90
2023-01-19T13:35:37.371Z,1.10
2023-01-19T13:39:17.652Z,1.10
2023-01-19T13:43:13.680Z,0.90
2023-01-19T13:46:51.269Z,1.10
2023-01-19T13:50:55.516Z,0.70
2023-01-19T13:54:40.757Z,1.30
2023-01-19T13:58:28.086Z,0.80
2023-01-19T14:02:06.019Z,0.80
2023-01-19T14:06:04.487Z,0.70
2023-01-19T14:10:06.113Z,0.60
2023-01-19T14:14:01.300Z,0.80
2023-01-19T14:20:48.589Z,1.10
2023-01-19T14:24:51.734Z,1.00
2023-01-19T14:28:42.228Z,1.00
2023-01-19T14:32:40.069Z,1.10
2023-01-19T14:36:25.484Z,1.00
2023-01-19T14:40:12.470Z,1.00
2023-01-19T14:44:14.772Z,1.00
2023-01-19T14:48:00.185Z,0.80
2023-01-19T14:52:02.641Z,0.80
2023-01-19T14:55:58.095Z,1.00
2023-01-19T15:00:00.507Z,0.80
2023-01-19T15:04:02.049Z,1.00
2023-01-19T15:07:38.331Z,1.00
2023-01-19T15:11:16.556Z,1.00
2023-01-19T15:15:02.124Z,0.90
2023-01-19T15:18:22.550Z,0.70
2023-01-19T15:22:07.997Z,0.60
2023-01-19T15:29:05.281Z,1.00
2023-01-19T15:32:56.102Z,0.90
2023-01-19T15:36:40.488Z,0.90
2023-01-19T15:40:04.135Z,1.30
2023-01-19T15:43:49.222Z,1.40
2023-01-19T15:47:20.391Z,1.50
2023-01-19T15:51:22.845Z,1.90
2023-01-19T15:55:15.119Z,1.30
2023-01-19T15:58:59.677Z,1.20
2023-01-19T16:02:29.638Z,1.20
2023-01-19T16:06:17.347Z,1.30
2023-01-19T16:10:19.758Z,1.90
2023-01-19T16:14:05.512Z,1.20
2023-01-19T16:17:29.354Z,1.20
2023-01-19T16:20:36.992Z,1.30
2023-01-19T16:24:01.817Z,1.40
2023-01-19T16:27:32.981Z,1.10
2023-01-19T16:31:16.662Z,4.40
2023-01-19T16:34:54.612Z,7.80
2023-01-19T16:38:57.593Z,2.40
2023-01-19T16:42:41.887Z,1.20
2023-01-19T16:46:39.155Z,1.10
2023-01-19T16:50:41.489Z,5.50
2023-01-19T16:54:33.843Z,1.80
2023-01-19T16:58:08.540Z,1.60
2023-01-19T17:01:56.267Z,1.40
2023-01-19T17:05:22.299Z,1.90
2023-01-19T17:09:13.707Z,1.90
2023-01-19T17:13:16.008Z,1.90
2023-01-19T17:17:08.318Z,1.60
2023-01-19T17:21:10.671Z,1.50
2023-01-19T17:25:13.078Z,1.00
2023-01-19T17:29:15.450Z,1.60
2023-01-19T17:33:00.087Z,1.20
2023-01-19T17:40:22.555Z,1.00
2023-01-19T17:44:03.341Z,0.80
2023-01-19T17:48:05.713Z,1.00
2023-01-19T17:52:08.180Z,1.10
2023-01-19T17:55:38.951Z,1.20
2023-01-19T17:59:33.916Z,1.10
2023-01-19T18:03:36.301Z,1.10
2023-01-19T18:07:31.090Z,1.20
2023-01-19T18:11:26.161Z,1.50
2023-01-19T18:18:33.780Z,1.40
2023-01-19T18:22:16.240Z,1.30
2023-01-19T18:26:08.504Z,1.40
2023-01-19T18:30:11.188Z,1.50
2023-01-19T18:33:47.339Z,1.60
2023-01-19T18:37:42.556Z,1.40
2023-01-19T18:41:29.675Z,1.60
2023-01-19T18:45:22.165Z,1.20
2023-01-19T18:49:24.543Z,1.60
2023-01-19T18:53:26.931Z,2.50
2023-01-19T18:57:11.933Z,1.60
2023-01-19T19:01:07.141Z,1.40
2023-01-19T19:05:02.205Z,1.50
2023-01-19T19:08:51.756Z,1.30
2023-01-19T19:12:54.152Z,1.60
2023-01-19T19:16:39.284Z,2.00
2023-01-19T19:20:23.408Z,2.00
2023-01-19T19:24:19.510Z,2.50
2023-01-19T19:28:21.888Z,2.40
2023-01-19T19:32:24.272Z,3.20
2023-01-19T19:36:26.652Z,3.00
2023-01-19T19:40:11.008Z,2.20
2023-01-19T19:44:13.461Z,2.50
2023-01-19T19:48:15.999Z,2.40
2023-01-19T19:52:08.308Z,2.80
2023-01-19T19:56:02.248Z,2.50
2023-01-19T20:00:04.640Z,2.50
2023-01-19T20:04:00.836Z,3.00
2023-01-19T20:07:37.052Z,3.40
2023-01-19T20:11:31.883Z,2.50
2023-01-19T20:15:04.101Z,2.80
2023-01-19T20:18:50.901Z,3.30
2023-01-19T20:22:52.124Z,4.50
2023-01-19T20:26:52.850Z,3.90
2023-01-19T20:30:42.807Z,3.90
2023-01-19T20:34:32.925Z,4.40
2023-01-19T20:37:47.818Z,3.70
2023-01-19T20:41:51.306Z,4.80
2023-01-19T20:45:53.861Z,3.30
2023-01-19T20:49:38.753Z,4.80
2023-01-19T20:53:21.027Z,4.50
2023-01-19T20:57:06.652Z,4.90
2023-01-19T21:00:51.206Z,5.50
2023-01-19T21:04:36.289Z,5.80
2023-01-19T21:08:31.575Z,4.20
2023-01-19T21:12:33.979Z,3.70
2023-01-19T21:16:07.967Z,4.20
2023-01-19T21:20:11.604Z,4.40
2023-01-19T21:23:59.014Z,3.90
2023-01-19T21:27:53.003Z,3.70
2023-01-19T21:31:48.292Z,4.40
2023-01-19T21:35:50.684Z,4.30
2023-01-19T21:39:17.923Z,5.10
2023-01-19T21:42:55.000Z,3.80
2023-01-19T21:46:31.243Z,4.40
2023-01-19T21:50:16.782Z,3.00
2023-01-19T21:53:32.378Z,3.80
2023-01-19T21:57:05.019Z,4.50
2023-01-19T22:00:46.986Z,4.10
2023-01-19T22:04:39.201Z,4.00
2023-01-19T22:08:41.801Z,3.50
2023-01-19T22:12:34.363Z,4.10
2023-01-19T22:16:39.856Z,3.60
2023-01-19T22:20:22.505Z,3.90
2023-01-19T22:23:59.308Z,4.50
2023-01-19T22:28:01.788Z,4.20
2023-01-19T22:31:37.579Z,3.50
2023-01-19T22:35:16.461Z,4.60
2023-01-19T22:39:08.867Z,4.40
2023-01-19T22:42:51.833Z,4.50
2023-01-19T22:46:34.865Z,4.50
2023-01-19T22:50:37.136Z,4.20
2023-01-19T22:54:32.068Z,4.20
2023-01-19T22:58:00.368Z,4.10
2023-01-19T23:01:45.635Z,4.90
2023-01-19T23:05:48.145Z,4.10
2023-01-19T23:09:31.259Z,4.40
2023-01-19T23:13:22.850Z,4.90
2023-01-19T23:17:10.459Z,4.10
2023-01-19T23:20:46.259Z,3.90
2023-01-19T23:24:37.223Z,3.60
2023-01-19T23:28:02.386Z,3.60
2023-01-19T23:32:08.210Z,3.90
2023-01-19T23:35:54.719Z,3.30
2023-01-19T23:39:59.855Z,3.80
2023-01-19T23:43:50.814Z,4.50
2023-01-19T23:47:53.142Z,3.70
2023-01-19T23:51:58.322Z,3.70
2023-01-19T23:55:43.385Z,3.30
2023-01-19T23:59:30.963Z,3.30
